Atlantic City International Airport Atlantic City US
ICAO: KACY
IATA: ACY
Category: Medium
Scheduled Services: Yes

Elevation: 75 ft
TransAlt. 18000 ft.

Airport Communications:
APP/DEP:38.55
APP/DEP:124.6
ATIS:108.6
CLNC DEL:127.85
GND:121.9
ANG OPS:138.12
MILLVILLE RDO:122.55
TWR:120.3

KACY Zoom In..

Runways:

(A) RW 04 length 6144 ft width 150 ft
---- / hdg 38

(B) RW 13 length 10000 ft width 150 ft
ILS 109.10 / hdg 128

(C) RW 22 length 6144 ft width 150 ft
---- / hdg 218

(D) RW 31 length 10000 ft width 150 ft
ILS 109.10 / hdg 308

Location; KACY
Day. 23 / Time. 03.46 Zulu
* Altimeter: 29.99
* Temperature: 26° c. 78.8°f.
* Wind from: 150° Speed 12 kn with Gusts up to 18 kn.
Dewpoint: 24° c.
Visibility: 9 Statute Miles.
Clouds: Few 1000 ft.
Clouds: Scattered 2900 ft.
Clouds: Broken 6000 ft.

KACY 230346Z 15012G18KT 9SM FEW010 SCT029 BKN060 26/24 A2999 RMK AO2 T02610244 $


Wind From 150°
Speed 12 kn.

 
 
jpsmedia.com for Web Design worldairports.se 2018   terms of use